Blaine Lake, Canada
Current Conditions -  °F | °C
As of 4:00 AM on Monday 26 Jan 2015 (Local Time) from CYXE Reporting Station
Clear Clear  
Wind Chill: 16°   Ceiling: Unl
Heat Index: 27°   Visibility: 15mi
Dew Point: 25°   Wind: 12mph
Humidity: 93%   Direction: 260°W
Pressure: 29.85"   Gusts: NA
Location:  52.83°N, 106.88°W
Report Text: CYXE 261000Z 26010KT 15SM SKC M03/M04 A2985 RMK SLP136
Loading
Personal Weather Stations






























Interactive Weather Map New forecast layout! Learn more

10-Day Weather Forecast

Advertisements
Track Severe Weather on mobile